sensor_id;sensor_type;location;lat;lon;timestamp;temperature;humidity
39219;DHT22;24934;52.752;6.964;2023-03-01T00:02:00;-2.10;99.90
39219;DHT22;24934;52.752;6.964;2023-03-01T00:04:26;-2.10;99.90
39219;DHT22;24934;52.752;6.964;2023-03-01T00:06:53;-2.10;99.90
39219;DHT22;24934;52.752;6.964;2023-03-01T00:09:19;-2.20;99.90
39219;DHT22;24934;52.752;6.964;2023-03-01T00:11:45;-2.10;99.90
39219;DHT22;24934;52.752;6.964;2023-03-01T00:14:11;-2.10;99.90
39219;DHT22;24934;52.752;6.964;2023-03-01T00:16:39;-2.10;99.90
39219;DHT22;24934;52.752;6.964;2023-03-01T00:19:07;-2.10;99.90
39219;DHT22;24934;52.752;6.964;2023-03-01T00:21:33;-2.10;99.90
39219;DHT22;24934;52.752;6.964;2023-03-01T00:24:01;-2.20;99.90
39219;DHT22;24934;52.752;6.964;2023-03-01T00:26:27;-2.20;99.90
39219;DHT22;24934;52.752;6.964;2023-03-01T00:28:53;-2.10;99.90
39219;DHT22;24934;52.752;6.964;2023-03-01T00:31:25;-2.10;99.90
39219;DHT22;24934;52.752;6.964;2023-03-01T00:34:00;-2.10;99.90
39219;DHT22;24934;52.752;6.964;2023-03-01T00:36:27;-2.00;99.90
39219;DHT22;24934;52.752;6.964;2023-03-01T00:38:53;-2.00;99.90
39219;DHT22;24934;52.752;6.964;2023-03-01T00:41:20;-2.00;99.90
39219;DHT22;24934;52.752;6.964;2023-03-01T00:43:48;-1.90;99.90
39219;DHT22;24934;52.752;6.964;2023-03-01T00:46:19;-1.90;99.90
39219;DHT22;24934;52.752;6.964;2023-03-01T00:48:45;-1.90;99.90
39219;DHT22;24934;52.752;6.964;2023-03-01T00:51:12;-2.00;99.90
39219;DHT22;24934;52.752;6.964;2023-03-01T00:53:40;-2.00;99.90
39219;DHT22;24934;52.752;6.964;2023-03-01T00:56:13;-2.20;99.90
39219;DHT22;24934;52.752;6.964;2023-03-01T00:58:39;-2.20;99.90
39219;DHT22;24934;52.752;6.964;2023-03-01T01:01:16;-2.20;99.90
39219;DHT22;24934;52.752;6.964;2023-03-01T01:03:48;-2.30;99.90
39219;DHT22;24934;52.752;6.964;2023-03-01T01:06:26;-2.30;99.90
39219;DHT22;24934;52.752;6.964;2023-03-01T01:08:53;-2.20;99.90
39219;DHT22;24934;52.752;6.964;2023-03-01T01:11:20;-2.10;99.90
39219;DHT22;24934;52.752;6.964;2023-03-01T01:13:47;-2.20;99.90
39219;DHT22;24934;52.752;6.964;2023-03-01T01:16:14;-2.30;99.90
39219;DHT22;24934;52.752;6.964;2023-03-01T01:18:40;-2.40;99.90
39219;DHT22;24934;52.752;6.964;2023-03-01T01:21:12;-2.30;99.90
39219;DHT22;24934;52.752;6.964;2023-03-01T01:23:40;-2.30;99.90
39219;DHT22;24934;52.752;6.964;2023-03-01T01:26:08;-2.30;99.90
39219;DHT22;24934;52.752;6.964;2023-03-01T01:28:34;-2.20;99.90
39219;DHT22;24934;52.752;6.964;2023-03-01T01:31:00;-2.10;99.90
39219;DHT22;24934;52.752;6.964;2023-03-01T01:33:25;-2.10;99.90
39219;DHT22;24934;52.752;6.964;2023-03-01T01:35:52;-2.20;99.90
39219;DHT22;24934;52.752;6.964;2023-03-01T01:38:18;-2.10;99.90
39219;DHT22;24934;52.752;6.964;2023-03-01T01:40:44;-2.20;99.90
39219;DHT22;24934;52.752;6.964;2023-03-01T01:45:57;-2.30;99.90
39219;DHT22;24934;52.752;6.964;2023-03-01T01:48:28;-2.50;99.90
39219;DHT22;24934;52.752;6.964;2023-03-01T01:51:06;-2.60;99.90
39219;DHT22;24934;52.752;6.964;2023-03-01T01:53:35;-2.70;99.90
39219;DHT22;24934;52.752;6.964;2023-03-01T01:56:02;-2.60;99.90
39219;DHT22;24934;52.752;6.964;2023-03-01T01:58:31;-2.70;99.90
39219;DHT22;24934;52.752;6.964;2023-03-01T02:00:59;-2.60;99.90
39219;DHT22;24934;52.752;6.964;2023-03-01T02:03:32;-2.60;99.90
39219;DHT22;24934;52.752;6.964;2023-03-01T02:06:19;-2.80;99.90
39219;DHT22;24934;52.752;6.964;2023-03-01T02:08:50;-2.90;99.90
39219;DHT22;24934;52.752;6.964;2023-03-01T02:11:18;-3.10;99.90
39219;DHT22;24934;52.752;6.964;2023-03-01T02:13:44;-3.10;99.90
39219;DHT22;24934;52.752;6.964;2023-03-01T02:16:14;-3.00;99.90
39219;DHT22;24934;52.752;6.964;2023-03-01T02:18:41;-3.10;99.90
39219;DHT22;24934;52.752;6.964;2023-03-01T02:26:48;-3.20;99.90
39219;DHT22;24934;52.752;6.964;2023-03-01T02:29:15;-3.30;99.90
39219;DHT22;24934;52.752;6.964;2023-03-01T02:31:41;-3.30;99.90
39219;DHT22;24934;52.752;6.964;2023-03-01T02:34:08;-3.30;99.90
39219;DHT22;24934;52.752;6.964;2023-03-01T02:36:47;-3.30;99.90
39219;DHT22;24934;52.752;6.964;2023-03-01T02:39:36;-3.20;99.90
39219;DHT22;24934;52.752;6.964;2023-03-01T02:42:15;-3.20;99.90
39219;DHT22;24934;52.752;6.964;2023-03-01T02:44:42;-3.20;99.90
39219;DHT22;24934;52.752;6.964;2023-03-01T02:47:08;-3.20;99.90
39219;DHT22;24934;52.752;6.964;2023-03-01T02:49:36;-3.30;99.90
39219;DHT22;24934;52.752;6.964;2023-03-01T02:52:21;-3.30;99.90
39219;DHT22;24934;52.752;6.964;2023-03-01T02:57:52;-3.40;99.90
39219;DHT22;24934;52.752;6.964;2023-03-01T03:00:22;-3.40;99.90
39219;DHT22;24934;52.752;6.964;2023-03-01T03:02:53;-3.30;99.90
39219;DHT22;24934;52.752;6.964;2023-03-01T03:05:21;-3.30;99.90
39219;DHT22;24934;52.752;6.964;2023-03-01T03:07:48;-3.20;99.90
39219;DHT22;24934;52.752;6.964;2023-03-01T03:10:30;-3.10;99.90
39219;DHT22;24934;52.752;6.964;2023-03-01T03:12:59;-3.20;99.90
39219;DHT22;24934;52.752;6.964;2023-03-01T03:15:26;-3.20;99.90
39219;DHT22;24934;52.752;6.964;2023-03-01T03:17:53;-3.10;99.90
39219;DHT22;24934;52.752;6.964;2023-03-01T03:20:22;-3.10;99.90
39219;DHT22;24934;52.752;6.964;2023-03-01T03:22:50;-3.10;99.90
39219;DHT22;24934;52.752;6.964;2023-03-01T03:25:17;-3.00;99.90
39219;DHT22;24934;52.752;6.964;2023-03-01T03:27:44;-3.00;99.90
39219;DHT22;24934;52.752;6.964;2023-03-01T03:30:13;-3.10;99.90
39219;DHT22;24934;52.752;6.964;2023-03-01T03:32:40;-3.20;99.90
39219;DHT22;24934;52.752;6.964;2023-03-01T03:35:08;-3.20;99.90
39219;DHT22;24934;52.752;6.964;2023-03-01T03:37:40;-3.20;99.90
39219;DHT22;24934;52.752;6.964;2023-03-01T03:40:25;-3.10;99.90
39219;DHT22;24934;52.752;6.964;2023-03-01T03:42:51;-3.00;99.90
39219;DHT22;24934;52.752;6.964;2023-03-01T03:45:17;-3.00;99.90
39219;DHT22;24934;52.752;6.964;2023-03-01T03:47:43;-3.00;99.90
39219;DHT22;24934;52.752;6.964;2023-03-01T03:50:14;-2.90;99.90
39219;DHT22;24934;52.752;6.964;2023-03-01T03:52:40;-3.00;99.90
39219;DHT22;24934;52.752;6.964;2023-03-01T03:55:08;-3.00;99.90
39219;DHT22;24934;52.752;6.964;2023-03-01T03:57:35;-3.00;99.90
39219;DHT22;24934;52.752;6.964;2023-03-01T04:00:00;-3.10;99.90
39219;DHT22;24934;52.752;6.964;2023-03-01T04:02:30;-3.10;99.90
39219;DHT22;24934;52.752;6.964;2023-03-01T04:04:56;-3.20;99.90
39219;DHT22;24934;52.752;6.964;2023-03-01T04:07:22;-3.20;99.90
39219;DHT22;24934;52.752;6.964;2023-03-01T04:09:47;-3.30;99.90
39219;DHT22;24934;52.752;6.964;2023-03-01T04:12:13;-3.20;99.90
39219;DHT22;24934;52.752;6.964;2023-03-01T04:14:38;-3.20;99.90
39219;DHT22;24934;52.752;6.964;2023-03-01T04:17:04;-3.20;99.90
39219;DHT22;24934;52.752;6.964;2023-03-01T04:19:31;-3.30;99.90
39219;DHT22;24934;52.752;6.964;2023-03-01T04:22:07;-3.20;99.90
39219;DHT22;24934;52.752;6.964;2023-03-01T04:24:37;-3.20;99.90
39219;DHT22;24934;52.752;6.964;2023-03-01T04:27:03;-3.20;99.90
39219;DHT22;24934;52.752;6.964;2023-03-01T04:29:29;-3.30;99.90
39219;DHT22;24934;52.752;6.964;2023-03-01T04:31:54;-3.40;99.90
39219;DHT22;24934;52.752;6.964;2023-03-01T04:34:20;-3.50;99.90
39219;DHT22;24934;52.752;6.964;2023-03-01T04:36:46;-3.50;99.90
39219;DHT22;24934;52.752;6.964;2023-03-01T04:39:11;-3.60;99.90
39219;DHT22;24934;52.752;6.964;2023-03-01T04:41:38;-3.60;99.90
39219;DHT22;24934;52.752;6.964;2023-03-01T04:44:05;-3.60;99.90
39219;DHT22;24934;52.752;6.964;2023-03-01T04:46:30;-3.60;99.90
39219;DHT22;24934;52.752;6.964;2023-03-01T04:48:56;-3.60;99.90
39219;DHT22;24934;52.752;6.964;2023-03-01T04:51:22;-3.70;99.90
39219;DHT22;24934;52.752;6.964;2023-03-01T04:53:47;-3.80;99.90
39219;DHT22;24934;52.752;6.964;2023-03-01T04:56:13;-3.80;99.90
39219;DHT22;24934;52.752;6.964;2023-03-01T04:58:39;-3.80;99.90
39219;DHT22;24934;52.752;6.964;2023-03-01T05:01:19;-3.80;99.90
39219;DHT22;24934;52.752;6.964;2023-03-01T05:03:47;-3.80;99.90
39219;DHT22;24934;52.752;6.964;2023-03-01T05:06:13;-3.60;99.90
39219;DHT22;24934;52.752;6.964;2023-03-01T05:08:40;-3.60;99.90
39219;DHT22;24934;52.752;6.964;2023-03-01T05:11:07;-3.50;99.90
39219;DHT22;24934;52.752;6.964;2023-03-01T05:13:35;-3.50;99.90
39219;DHT22;24934;52.752;6.964;2023-03-01T05:16:03;-3.50;99.90
39219;DHT22;24934;52.752;6.964;2023-03-01T05:18:30;-3.60;99.90
39219;DHT22;24934;52.752;6.964;2023-03-01T05:21:05;-3.60;99.90
39219;DHT22;24934;52.752;6.964;2023-03-01T05:23:32;-3.60;99.90
39219;DHT22;24934;52.752;6.964;2023-03-01T05:26:00;-3.60;99.90
39219;DHT22;24934;52.752;6.964;2023-03-01T05:28:26;-3.70;99.90
39219;DHT22;24934;52.752;6.964;2023-03-01T05:30:56;-3.80;99.90
39219;DHT22;24934;52.752;6.964;2023-03-01T05:33:23;-3.80;99.90
39219;DHT22;24934;52.752;6.964;2023-03-01T05:35:50;-3.80;99.90
39219;DHT22;24934;52.752;6.964;2023-03-01T05:38:17;-3.80;99.90
39219;DHT22;24934;52.752;6.964;2023-03-01T05:40:45;-3.70;99.90
39219;DHT22;24934;52.752;6.964;2023-03-01T05:43:13;-3.70;99.90
39219;DHT22;24934;52.752;6.964;2023-03-01T05:45:40;-3.70;99.90
39219;DHT22;24934;52.752;6.964;2023-03-01T05:48:06;-3.60;99.90
39219;DHT22;24934;52.752;6.964;2023-03-01T05:50:38;-3.60;99.90
39219;DHT22;24934;52.752;6.964;2023-03-01T05:55:32;-3.70;99.90
39219;DHT22;24934;52.752;6.964;2023-03-01T05:57:59;-3.80;99.90
39219;DHT22;24934;52.752;6.964;2023-03-01T06:00:26;-3.80;99.90
39219;DHT22;24934;52.752;6.964;2023-03-01T06:02:56;-3.80;99.90
39219;DHT22;24934;52.752;6.964;2023-03-01T06:05:23;-3.80;99.90
39219;DHT22;24934;52.752;6.964;2023-03-01T06:07:55;-3.90;99.90
39219;DHT22;24934;52.752;6.964;2023-03-01T06:10:22;-3.80;99.90
39219;DHT22;24934;52.752;6.964;2023-03-01T06:12:48;-3.70;99.90
39219;DHT22;24934;52.752;6.964;2023-03-01T06:15:15;-3.70;99.90
39219;DHT22;24934;52.752;6.964;2023-03-01T06:17:45;-3.60;99.90
39219;DHT22;24934;52.752;6.964;2023-03-01T06:20:17;-3.60;99.90
39219;DHT22;24934;52.752;6.964;2023-03-01T06:22:43;-3.60;99.90
39219;DHT22;24934;52.752;6.964;2023-03-01T06:25:10;-3.60;99.90
39219;DHT22;24934;52.752;6.964;2023-03-01T06:27:36;-3.60;99.90
39219;DHT22;24934;52.752;6.964;2023-03-01T06:30:05;-3.60;99.90
39219;DHT22;24934;52.752;6.964;2023-03-01T06:32:32;-3.60;99.90
39219;DHT22;24934;52.752;6.964;2023-03-01T06:34:58;-3.50;99.90
39219;DHT22;24934;52.752;6.964;2023-03-01T06:37:26;-3.50;99.90
39219;DHT22;24934;52.752;6.964;2023-03-01T06:39:52;-3.50;99.90
39219;DHT22;24934;52.752;6.964;2023-03-01T06:42:18;-3.50;99.90
39219;DHT22;24934;52.752;6.964;2023-03-01T06:44:44;-3.40;99.90
39219;DHT22;24934;52.752;6.964;2023-03-01T06:47:11;-3.40;99.90
39219;DHT22;24934;52.752;6.964;2023-03-01T06:49:36;-3.40;99.90
39219;DHT22;24934;52.752;6.964;2023-03-01T06:52:02;-3.30;99.90
39219;DHT22;24934;52.752;6.964;2023-03-01T06:54:30;-3.30;99.90
39219;DHT22;24934;52.752;6.964;2023-03-01T06:56:56;-3.30;99.90
39219;DHT22;24934;52.752;6.964;2023-03-01T06:59:21;-3.30;99.90
39219;DHT22;24934;52.752;6.964;2023-03-01T07:01:47;-3.30;99.90
39219;DHT22;24934;52.752;6.964;2023-03-01T07:04:13;-3.20;99.90
39219;DHT22;24934;52.752;6.964;2023-03-01T07:06:39;-3.20;99.90
39219;DHT22;24934;52.752;6.964;2023-03-01T07:09:05;-3.10;99.90
39219;DHT22;24934;52.752;6.964;2023-03-01T07:11:31;-3.00;99.90
39219;DHT22;24934;52.752;6.964;2023-03-01T07:13:56;-2.80;99.90
39219;DHT22;24934;52.752;6.964;2023-03-01T07:16:23;-2.70;99.90
39219;DHT22;24934;52.752;6.964;2023-03-01T07:18:49;-2.10;99.90
39219;DHT22;24934;52.752;6.964;2023-03-01T07:21:15;-1.50;99.90
39219;DHT22;24934;52.752;6.964;2023-03-01T07:23:42;-0.70;99.90
39219;DHT22;24934;52.752;6.964;2023-03-01T07:26:07;0.10;99.90
39219;DHT22;24934;52.752;6.964;2023-03-01T07:28:33;1.00;99.90
39219;DHT22;24934;52.752;6.964;2023-03-01T07:31:05;1.70;99.90
39219;DHT22;24934;52.752;6.964;2023-03-01T07:33:32;2.10;99.90
39219;DHT22;24934;52.752;6.964;2023-03-01T07:35:58;2.60;99.90
39219;DHT22;24934;52.752;6.964;2023-03-01T07:38:25;3.30;99.90
39219;DHT22;24934;52.752;6.964;2023-03-01T07:40:50;3.90;99.90
39219;DHT22;24934;52.752;6.964;2023-03-01T07:43:16;4.10;99.90
39219;DHT22;24934;52.752;6.964;2023-03-01T07:45:42;4.40;99.90
39219;DHT22;24934;52.752;6.964;2023-03-01T07:48:07;4.90;99.90
39219;DHT22;24934;52.752;6.964;2023-03-01T07:50:33;5.10;99.90
39219;DHT22;24934;52.752;6.964;2023-03-01T07:52:59;5.60;99.90
39219;DHT22;24934;52.752;6.964;2023-03-01T07:55:24;6.60;99.90
39219;DHT22;24934;52.752;6.964;2023-03-01T07:57:50;7.10;99.90
39219;DHT22;24934;52.752;6.964;2023-03-01T08:00:16;7.60;99.90
39219;DHT22;24934;52.752;6.964;2023-03-01T08:02:42;8.30;99.90
39219;DHT22;24934;52.752;6.964;2023-03-01T08:05:08;9.10;99.90
39219;DHT22;24934;52.752;6.964;2023-03-01T08:07:35;9.70;99.90
39219;DHT22;24934;52.752;6.964;2023-03-01T08:10:01;10.10;99.90
39219;DHT22;24934;52.752;6.964;2023-03-01T08:12:26;10.20;99.90
39219;DHT22;24934;52.752;6.964;2023-03-01T08:14:53;10.80;99.90
39219;DHT22;24934;52.752;6.964;2023-03-01T08:17:19;11.10;99.90
39219;DHT22;24934;52.752;6.964;2023-03-01T08:19:45;11.20;99.90
39219;DHT22;24934;52.752;6.964;2023-03-01T08:22:10;11.90;99.90
39219;DHT22;24934;52.752;6.964;2023-03-01T08:24:36;12.10;99.90
39219;DHT22;24934;52.752;6.964;2023-03-01T08:27:04;12.60;99.90
39219;DHT22;24934;52.752;6.964;2023-03-01T08:29:33;12.30;99.90
39219;DHT22;24934;52.752;6.964;2023-03-01T08:31:59;11.00;99.90
39219;DHT22;24934;52.752;6.964;2023-03-01T08:34:25;9.90;99.90
39219;DHT22;24934;52.752;6.964;2023-03-01T08:36:51;9.10;99.90
39219;DHT22;24934;52.752;6.964;2023-03-01T08:39:18;9.30;99.90
39219;DHT22;24934;52.752;6.964;2023-03-01T08:41:45;9.20;99.90
39219;DHT22;24934;52.752;6.964;2023-03-01T08:44:12;9.90;99.90
39219;DHT22;24934;52.752;6.964;2023-03-01T08:46:40;10.60;99.90
39219;DHT22;24934;52.752;6.964;2023-03-01T08:49:08;11.80;99.90
39219;DHT22;24934;52.752;6.964;2023-03-01T08:51:34;12.50;99.90
39219;DHT22;24934;52.752;6.964;2023-03-01T08:54:21;12.60;99.90
39219;DHT22;24934;52.752;6.964;2023-03-01T08:56:47;12.50;99.90
39219;DHT22;24934;52.752;6.964;2023-03-01T08:59:15;12.10;99.90
39219;DHT22;24934;52.752;6.964;2023-03-01T09:01:41;12.20;99.90
39219;DHT22;24934;52.752;6.964;2023-03-01T09:04:11;11.90;99.90
39219;DHT22;24934;52.752;6.964;2023-03-01T09:06:37;11.70;99.90
39219;DHT22;24934;52.752;6.964;2023-03-01T09:09:04;11.60;99.90
39219;DHT22;24934;52.752;6.964;2023-03-01T09:11:30;11.30;99.90
39219;DHT22;24934;52.752;6.964;2023-03-01T09:13:56;11.10;99.90
39219;DHT22;24934;52.752;6.964;2023-03-01T09:16:22;10.70;99.90
39219;DHT22;24934;52.752;6.964;2023-03-01T09:18:52;10.30;99.90
39219;DHT22;24934;52.752;6.964;2023-03-01T09:21:19;10.00;99.90
39219;DHT22;24934;52.752;6.964;2023-03-01T09:23:47;10.30;99.90
39219;DHT22;24934;52.752;6.964;2023-03-01T09:26:21;10.90;99.90
39219;DHT22;24934;52.752;6.964;2023-03-01T09:28:51;11.10;99.90
39219;DHT22;24934;52.752;6.964;2023-03-01T09:31:19;11.20;99.90
39219;DHT22;24934;52.752;6.964;2023-03-01T09:33:49;11.80;99.90
39219;DHT22;24934;52.752;6.964;2023-03-01T09:36:20;11.90;99.90
39219;DHT22;24934;52.752;6.964;2023-03-01T09:38:46;11.70;99.90
39219;DHT22;24934;52.752;6.964;2023-03-01T09:41:44;10.80;99.90
39219;DHT22;24934;52.752;6.964;2023-03-01T09:46:49;10.40;99.90
39219;DHT22;24934;52.752;6.964;2023-03-01T09:49:22;10.60;99.90
39219;DHT22;24934;52.752;6.964;2023-03-01T09:52:13;10.60;99.90
39219;DHT22;24934;52.752;6.964;2023-03-01T09:54:45;11.40;99.90
39219;DHT22;24934;52.752;6.964;2023-03-01T10:00:12;11.60;99.90
39219;DHT22;24934;52.752;6.964;2023-03-01T10:08:11;11.00;99.80
39219;DHT22;24934;52.752;6.964;2023-03-01T10:10:43;10.80;99.90
39219;DHT22;24934;52.752;6.964;2023-03-01T10:13:33;11.10;99.90
39219;DHT22;24934;52.752;6.964;2023-03-01T10:16:13;11.30;99.90
39219;DHT22;24934;52.752;6.964;2023-03-01T10:18:40;11.10;99.10
39219;DHT22;24934;52.752;6.964;2023-03-01T10:21:18;10.90;99.00
39219;DHT22;24934;52.752;6.964;2023-03-01T10:23:44;10.70;99.10
39219;DHT22;24934;52.752;6.964;2023-03-01T10:26:21;10.80;99.90
39219;DHT22;24934;52.752;6.964;2023-03-01T10:31:37;12.00;98.60
39219;DHT22;24934;52.752;6.964;2023-03-01T10:34:13;12.00;99.40
39219;DHT22;24934;52.752;6.964;2023-03-01T10:36:40;12.20;98.50
39219;DHT22;24934;52.752;6.964;2023-03-01T10:39:16;12.50;99.30
39219;DHT22;24934;52.752;6.964;2023-03-01T10:44:40;12.60;98.00
39219;DHT22;24934;52.752;6.964;2023-03-01T10:47:21;12.40;99.50
39219;DHT22;24934;52.752;6.964;2023-03-01T10:52:28;12.40;98.60
39219;DHT22;24934;52.752;6.964;2023-03-01T10:55:01;12.10;98.80
39219;DHT22;24934;52.752;6.964;2023-03-01T10:57:38;12.10;98.60
39219;DHT22;24934;52.752;6.964;2023-03-01T11:02:48;10.70;99.70
39219;DHT22;24934;52.752;6.964;2023-03-01T11:07:54;11.40;99.40
39219;DHT22;24934;52.752;6.964;2023-03-01T11:10:35;11.50;99.80
39219;DHT22;24934;52.752;6.964;2023-03-01T11:13:16;10.90;99.10
39219;DHT22;24934;52.752;6.964;2023-03-01T11:15:42;10.80;99.00
39219;DHT22;24934;52.752;6.964;2023-03-01T11:18:22;10.90;99.70
39219;DHT22;24934;52.752;6.964;2023-03-01T11:20:49;10.70;99.90
39219;DHT22;24934;52.752;6.964;2023-03-01T11:23:16;10.80;99.90
39219;DHT22;24934;52.752;6.964;2023-03-01T11:25:47;10.80;99.90
39219;DHT22;24934;52.752;6.964;2023-03-01T11:28:19;10.90;99.90
39219;DHT22;24934;52.752;6.964;2023-03-01T11:31:06;10.70;99.90
39219;DHT22;24934;52.752;6.964;2023-03-01T11:41:52;10.50;99.90
39219;DHT22;24934;52.752;6.964;2023-03-01T11:44:26;10.40;99.90
39219;DHT22;24934;52.752;6.964;2023-03-01T11:49:57;10.40;99.90
39219;DHT22;24934;52.752;6.964;2023-03-01T12:01:14;9.40;99.90
39219;DHT22;24934;52.752;6.964;2023-03-01T12:06:30;9.60;99.90
39219;DHT22;24934;52.752;6.964;2023-03-01T12:15:02;9.50;99.90
39219;DHT22;24934;52.752;6.964;2023-03-01T12:21:12;10.30;99.90
39219;DHT22;24934;52.752;6.964;2023-03-01T12:24:06;10.20;99.90
39219;DHT22;24934;52.752;6.964;2023-03-01T12:26:47;10.30;99.90
39219;DHT22;24934;52.752;6.964;2023-03-01T12:46:46;9.70;99.90
39219;DHT22;24934;52.752;6.964;2023-03-01T12:49:23;9.60;99.90
39219;DHT22;24934;52.752;6.964;2023-03-01T12:54:41;9.40;99.90
39219;DHT22;24934;52.752;6.964;2023-03-01T12:57:45;9.30;99.90
39219;DHT22;24934;52.752;6.964;2023-03-01T13:03:22;9.00;99.90
39219;DHT22;24934;52.752;6.964;2023-03-01T13:06:14;9.00;99.90
39219;DHT22;24934;52.752;6.964;2023-03-01T13:08:47;9.10;99.90
39219;DHT22;24934;52.752;6.964;2023-03-01T13:11:23;9.10;99.90
39219;DHT22;24934;52.752;6.964;2023-03-01T13:13:49;9.20;99.90
39219;DHT22;24934;52.752;6.964;2023-03-01T13:19:21;9.50;99.90
39219;DHT22;24934;52.752;6.964;2023-03-01T13:21:49;9.50;99.90
39219;DHT22;24934;52.752;6.964;2023-03-01T13:34:58;9.50;99.90
39219;DHT22;24934;52.752;6.964;2023-03-01T13:37:30;9.40;99.90
39219;DHT22;24934;52.752;6.964;2023-03-01T13:39:58;9.20;99.90
39219;DHT22;24934;52.752;6.964;2023-03-01T13:42:39;9.20;99.90
39219;DHT22;24934;52.752;6.964;2023-03-01T13:48:15;9.20;99.90
39219;DHT22;24934;52.752;6.964;2023-03-01T13:51:09;8.80;99.90
39219;DHT22;24934;52.752;6.964;2023-03-01T13:53:42;8.80;99.90
39219;DHT22;24934;52.752;6.964;2023-03-01T13:56:25;8.90;99.90
39219;DHT22;24934;52.752;6.964;2023-03-01T13:58:58;9.00;99.90
39219;DHT22;24934;52.752;6.964;2023-03-01T14:01:34;9.00;99.90
39219;DHT22;24934;52.752;6.964;2023-03-01T14:04:01;8.90;99.90
39219;DHT22;24934;52.752;6.964;2023-03-01T14:06:33;8.90;99.90
39219;DHT22;24934;52.752;6.964;2023-03-01T14:09:19;8.80;99.90
39219;DHT22;24934;52.752;6.964;2023-03-01T14:11:55;9.00;99.90
39219;DHT22;24934;52.752;6.964;2023-03-01T14:14:31;9.30;99.90
39219;DHT22;24934;52.752;6.964;2023-03-01T14:19:33;9.40;99.90
39219;DHT22;24934;52.752;6.964;2023-03-01T14:25:32;9.10;99.90
39219;DHT22;24934;52.752;6.964;2023-03-01T14:30:53;9.30;99.90
39219;DHT22;24934;52.752;6.964;2023-03-01T14:33:27;9.50;99.90
39219;DHT22;24934;52.752;6.964;2023-03-01T14:38:27;9.30;99.90
39219;DHT22;24934;52.752;6.964;2023-03-01T14:40:59;9.60;99.90
39219;DHT22;24934;52.752;6.964;2023-03-01T14:43:27;9.50;99.90
39219;DHT22;24934;52.752;6.964;2023-03-01T14:45:54;9.30;99.90
39219;DHT22;24934;52.752;6.964;2023-03-01T14:48:20;9.20;99.90
39219;DHT22;24934;52.752;6.964;2023-03-01T14:50:47;9.20;99.90
39219;DHT22;24934;52.752;6.964;2023-03-01T14:53:18;9.00;99.90
39219;DHT22;24934;52.752;6.964;2023-03-01T14:55:55;8.90;99.90
39219;DHT22;24934;52.752;6.964;2023-03-01T14:58:24;8.90;99.90
39219;DHT22;24934;52.752;6.964;2023-03-01T15:00:55;8.70;99.90
39219;DHT22;24934;52.752;6.964;2023-03-01T15:03:41;8.60;99.90
39219;DHT22;24934;52.752;6.964;2023-03-01T15:06:10;8.70;99.90
39219;DHT22;24934;52.752;6.964;2023-03-01T15:08:41;8.50;99.90
39219;DHT22;24934;52.752;6.964;2023-03-01T15:13:39;8.30;99.90
39219;DHT22;24934;52.752;6.964;2023-03-01T15:16:32;8.30;99.90
39219;DHT22;24934;52.752;6.964;2023-03-01T15:19:00;8.40;99.90
39219;DHT22;24934;52.752;6.964;2023-03-01T15:21:34;8.40;99.90
39219;DHT22;24934;52.752;6.964;2023-03-01T15:26:54;8.40;99.90
39219;DHT22;24934;52.752;6.964;2023-03-01T15:29:24;8.40;99.90
39219;DHT22;24934;52.752;6.964;2023-03-01T15:34:46;8.30;99.90
39219;DHT22;24934;52.752;6.964;2023-03-01T15:37:45;8.20;99.90
39219;DHT22;24934;52.752;6.964;2023-03-01T15:40:29;8.10;99.90
39219;DHT22;24934;52.752;6.964;2023-03-01T15:43:05;8.10;99.90
39219;DHT22;24934;52.752;6.964;2023-03-01T15:45:33;8.00;99.90
39219;DHT22;24934;52.752;6.964;2023-03-01T15:48:13;8.00;99.90
39219;DHT22;24934;52.752;6.964;2023-03-01T15:50:40;7.90;99.90
39219;DHT22;24934;52.752;6.964;2023-03-01T15:53:12;7.90;99.90
39219;DHT22;24934;52.752;6.964;2023-03-01T15:55:39;7.80;99.90
39219;DHT22;24934;52.752;6.964;2023-03-01T15:58:18;7.60;99.90
39219;DHT22;24934;52.752;6.964;2023-03-01T16:00:45;7.50;99.90
39219;DHT22;24934;52.752;6.964;2023-03-01T16:03:14;7.40;99.90
39219;DHT22;24934;52.752;6.964;2023-03-01T16:05:39;7.30;99.90
39219;DHT22;24934;52.752;6.964;2023-03-01T16:08:06;7.20;99.90
39219;DHT22;24934;52.752;6.964;2023-03-01T16:10:32;7.10;99.90
39219;DHT22;24934;52.752;6.964;2023-03-01T16:12:58;7.00;99.90
39219;DHT22;24934;52.752;6.964;2023-03-01T16:15:32;6.90;99.90
39219;DHT22;24934;52.752;6.964;2023-03-01T16:17:59;6.80;99.90
39219;DHT22;24934;52.752;6.964;2023-03-01T16:20:25;6.70;99.90
39219;DHT22;24934;52.752;6.964;2023-03-01T16:22:51;6.60;99.90
39219;DHT22;24934;52.752;6.964;2023-03-01T16:25:19;6.50;99.90
39219;DHT22;24934;52.752;6.964;2023-03-01T16:27:46;6.50;99.90
39219;DHT22;24934;52.752;6.964;2023-03-01T16:30:14;6.50;99.90
39219;DHT22;24934;52.752;6.964;2023-03-01T16:32:41;6.40;99.90
39219;DHT22;24934;52.752;6.964;2023-03-01T16:35:08;6.30;99.90
39219;DHT22;24934;52.752;6.964;2023-03-01T16:37:36;6.30;99.90
39219;DHT22;24934;52.752;6.964;2023-03-01T16:40:02;6.20;99.90
39219;DHT22;24934;52.752;6.964;2023-03-01T16:42:33;6.10;99.90
39219;DHT22;24934;52.752;6.964;2023-03-01T16:44:59;6.00;99.90
39219;DHT22;24934;52.752;6.964;2023-03-01T16:47:27;5.90;99.90
39219;DHT22;24934;52.752;6.964;2023-03-01T16:49:53;5.80;99.90
39219;DHT22;24934;52.752;6.964;2023-03-01T16:52:19;5.70;99.90
39219;DHT22;24934;52.752;6.964;2023-03-01T16:54:45;5.60;99.90
39219;DHT22;24934;52.752;6.964;2023-03-01T16:57:11;5.40;99.90
39219;DHT22;24934;52.752;6.964;2023-03-01T16:59:37;5.30;99.90
39219;DHT22;24934;52.752;6.964;2023-03-01T17:02:03;5.20;99.90
39219;DHT22;24934;52.752;6.964;2023-03-01T17:04:29;5.10;99.90
39219;DHT22;24934;52.752;6.964;2023-03-01T17:06:55;5.00;99.90
39219;DHT22;24934;52.752;6.964;2023-03-01T17:09:20;4.90;99.90
39219;DHT22;24934;52.752;6.964;2023-03-01T17:11:48;4.80;99.90
39219;DHT22;24934;52.752;6.964;2023-03-01T17:14:14;4.70;99.90
39219;DHT22;24934;52.752;6.964;2023-03-01T17:16:41;4.60;99.90
39219;DHT22;24934;52.752;6.964;2023-03-01T17:19:07;4.50;99.90
39219;DHT22;24934;52.752;6.964;2023-03-01T17:21:33;4.40;99.90
39219;DHT22;24934;52.752;6.964;2023-03-01T17:23:59;4.30;99.90
39219;DHT22;24934;52.752;6.964;2023-03-01T17:26:25;4.20;99.90
39219;DHT22;24934;52.752;6.964;2023-03-01T17:28:50;4.10;99.90
39219;DHT22;24934;52.752;6.964;2023-03-01T17:31:18;4.00;99.90
39219;DHT22;24934;52.752;6.964;2023-03-01T17:33:44;3.90;99.90
39219;DHT22;24934;52.752;6.964;2023-03-01T17:36:09;3.80;99.90
39219;DHT22;24934;52.752;6.964;2023-03-01T17:38:36;3.70;99.90
39219;DHT22;24934;52.752;6.964;2023-03-01T17:41:03;3.60;99.90
39219;DHT22;24934;52.752;6.964;2023-03-01T17:43:29;3.50;99.90
39219;DHT22;24934;52.752;6.964;2023-03-01T17:45:55;3.30;99.90
39219;DHT22;24934;52.752;6.964;2023-03-01T17:48:22;3.20;99.90
39219;DHT22;24934;52.752;6.964;2023-03-01T17:50:47;3.10;99.90
39219;DHT22;24934;52.752;6.964;2023-03-01T17:53:13;3.00;99.90
39219;DHT22;24934;52.752;6.964;2023-03-01T17:55:41;3.00;99.90
39219;DHT22;24934;52.752;6.964;2023-03-01T17:58:09;2.90;99.90
39219;DHT22;24934;52.752;6.964;2023-03-01T18:00:35;2.80;99.90
39219;DHT22;24934;52.752;6.964;2023-03-01T18:03:01;2.80;99.90